createdAt,value
2017-07-12T00:01:47.399Z,6.23
2017-07-12T00:04:15.554Z,6.73
2017-07-12T00:06:43.699Z,6.83
2017-07-12T00:09:11.838Z,7.30
2017-07-12T00:11:39.983Z,6.23
2017-07-12T00:14:08.205Z,7.20
2017-07-12T00:16:36.373Z,7.77
2017-07-12T00:19:07.702Z,7.50
2017-07-12T00:21:35.848Z,6.70
2017-07-12T00:24:04.017Z,7.50
2017-07-12T00:26:32.161Z,7.43
2017-07-12T00:29:00.288Z,8.60
2017-07-12T00:31:28.517Z,8.97
2017-07-12T00:33:56.714Z,9.30
2017-07-12T00:36:25.570Z,9.47
2017-07-12T00:38:53.696Z,10.87
2017-07-12T00:41:21.867Z,10.73
2017-07-12T00:43:50.094Z,10.70
2017-07-12T00:46:18.228Z,9.93
2017-07-12T00:48:47.335Z,10.63
2017-07-12T00:51:15.509Z,12.50
2017-07-12T00:53:43.719Z,11.80
2017-07-12T00:56:11.859Z,12.20
2017-07-12T00:58:40.014Z,12.20
2017-07-12T01:01:08.180Z,13.47
2017-07-12T01:03:36.328Z,12.40
2017-07-12T01:06:05.391Z,11.73
2017-07-12T01:08:33.594Z,12.30
2017-07-12T01:11:01.810Z,12.53
2017-07-12T01:13:30.010Z,12.20
2017-07-12T01:16:11.061Z,13.43
2017-07-12T01:18:39.250Z,11.90
2017-07-12T01:21:07.406Z,13.00
2017-07-12T01:23:35.610Z,14.00
2017-07-12T01:26:03.799Z,13.57
2017-07-12T01:28:32.090Z,13.60
2017-07-12T01:31:00.218Z,14.30
2017-07-12T01:33:30.419Z,12.80
2017-07-12T01:35:58.577Z,14.93
2017-07-12T01:38:40.945Z,14.00
2017-07-12T01:41:09.182Z,14.90
2017-07-12T01:43:38.273Z,14.80
2017-07-12T01:46:06.462Z,15.77
2017-07-12T01:48:34.595Z,18.40
2017-07-12T01:51:02.749Z,17.67
2017-07-12T01:53:30.942Z,17.30
2017-07-12T01:55:59.130Z,19.83
2017-07-12T01:58:27.267Z,17.67
2017-07-12T02:00:55.467Z,18.53
2017-07-12T02:03:23.652Z,17.80
2017-07-12T02:05:51.771Z,17.13
2017-07-12T02:08:19.935Z,16.03
2017-07-12T02:10:48.112Z,16.33
2017-07-12T02:13:16.339Z,16.23
2017-07-12T02:15:44.537Z,17.03
2017-07-12T02:18:12.708Z,15.63
2017-07-12T02:20:41.892Z,15.97
2017-07-12T02:23:10.040Z,16.37
2017-07-12T02:25:41.790Z,14.83
2017-07-12T02:28:10.107Z,15.60
2017-07-12T02:30:38.238Z,16.37
2017-07-12T02:33:07.323Z,16.17
2017-07-12T02:35:35.471Z,16.33
2017-07-12T02:38:03.648Z,17.83
2017-07-12T02:40:31.875Z,18.10
2017-07-12T02:43:00.075Z,17.67
2017-07-12T02:45:28.268Z,19.20
2017-07-12T02:47:56.478Z,19.27
2017-07-12T02:50:24.703Z,19.07
2017-07-12T02:52:52.913Z,18.57
2017-07-12T02:55:23.049Z,18.70
2017-07-12T02:57:51.203Z,20.73
2017-07-12T03:00:19.412Z,20.30
2017-07-12T03:02:47.573Z,21.63
2017-07-12T03:05:15.749Z,19.77
2017-07-12T03:07:44.810Z,20.37
2017-07-12T03:10:12.980Z,22.00
2017-07-12T03:12:41.107Z,20.87
2017-07-12T03:15:09.261Z,21.33
2017-07-12T03:17:37.404Z,21.03
2017-07-12T03:20:05.567Z,20.33
2017-07-12T03:22:33.750Z,21.67
2017-07-12T03:25:01.861Z,21.70
2017-07-12T03:27:30.047Z,19.97
2017-07-12T03:29:58.233Z,20.63
2017-07-12T03:32:26.382Z,19.27
2017-07-12T03:34:54.507Z,21.20
2017-07-12T03:37:22.682Z,19.30
2017-07-12T03:39:55.511Z,19.90
2017-07-12T03:42:24.660Z,20.10
2017-07-12T03:44:52.908Z,21.87
2017-07-12T03:47:21.074Z,22.07
2017-07-12T03:50:05.531Z,19.27
2017-07-12T03:52:33.697Z,20.40
2017-07-12T03:55:01.812Z,21.67
2017-07-12T03:57:29.989Z,21.13
2017-07-12T04:00:04.191Z,21.03
2017-07-12T04:02:32.352Z,20.73
2017-07-12T04:05:00.612Z,21.07
2017-07-12T04:07:32.186Z,22.30
2017-07-12T04:10:01.337Z,20.97
2017-07-12T04:12:34.519Z,21.60
2017-07-12T04:15:03.689Z,21.00
2017-07-12T04:17:44.323Z,19.97
2017-07-12T04:20:12.519Z,16.30
2017-07-12T04:22:47.273Z,17.77
2017-07-12T04:25:15.463Z,18.53
2017-07-12T04:27:44.610Z,18.33
2017-07-12T04:30:23.939Z,18.47
2017-07-12T04:32:52.840Z,19.13
2017-07-12T04:35:21.927Z,17.50
2017-07-12T04:37:50.115Z,20.77
2017-07-12T04:40:23.905Z,17.40
2017-07-12T04:42:53.558Z,18.37
2017-07-12T04:45:22.971Z,19.60
2017-07-12T04:47:51.110Z,19.50
2017-07-12T04:50:19.246Z,21.40
2017-07-12T04:52:47.506Z,20.83
2017-07-12T04:55:15.612Z,21.57
2017-07-12T04:57:44.354Z,22.20
2017-07-12T05:00:12.495Z,22.30
2017-07-12T05:02:40.776Z,21.83
2017-07-12T05:05:08.907Z,21.47
2017-07-12T05:07:37.074Z,23.90
2017-07-12T05:10:05.234Z,20.70
2017-07-12T05:12:33.382Z,20.60
2017-07-12T05:15:01.551Z,22.47
2017-07-12T05:17:29.706Z,21.43
2017-07-12T05:19:57.839Z,22.40
2017-07-12T05:22:26.031Z,22.20
2017-07-12T05:24:54.268Z,19.40
2017-07-12T05:27:22.478Z,19.90
2017-07-12T05:29:50.721Z,18.50
2017-07-12T05:32:18.885Z,17.40
2017-07-12T05:34:47.121Z,19.27
2017-07-12T05:37:15.313Z,19.13
2017-07-12T05:39:43.492Z,20.33
2017-07-12T05:42:11.677Z,19.87
2017-07-12T05:44:39.825Z,21.87
2017-07-12T05:47:08.064Z,15.87
2017-07-12T05:49:37.071Z,16.03
2017-07-12T05:52:05.244Z,15.90
2017-07-12T05:54:33.470Z,16.73
2017-07-12T05:57:01.950Z,16.53
2017-07-12T05:59:31.133Z,15.20
2017-07-12T06:01:59.353Z,14.60
2017-07-12T06:04:27.588Z,13.90
2017-07-12T06:06:55.783Z,12.93
2017-07-12T06:09:23.998Z,13.53
2017-07-12T06:11:52.175Z,13.93
2017-07-12T06:14:20.418Z,12.07
2017-07-12T06:16:52.033Z,13.57
2017-07-12T06:19:20.278Z,12.97
2017-07-12T06:21:48.448Z,10.90
2017-07-12T06:24:16.700Z,11.43
2017-07-12T06:26:44.923Z,12.43
2017-07-12T06:29:13.108Z,12.50
2017-07-12T06:31:41.293Z,12.03
2017-07-12T06:34:09.525Z,10.43
2017-07-12T06:36:37.656Z,9.43
2017-07-12T06:39:05.975Z,11.13
2017-07-12T06:41:34.171Z,11.03
2017-07-12T06:44:02.399Z,10.90
2017-07-12T06:46:30.530Z,10.73
2017-07-12T06:48:58.668Z,9.13
2017-07-12T06:51:27.800Z,11.17
2017-07-12T06:53:56.171Z,11.93
2017-07-12T06:56:24.387Z,11.77
2017-07-12T06:58:53.496Z,13.77
2017-07-12T07:01:21.655Z,13.17
2017-07-12T07:03:49.813Z,14.67
2017-07-12T07:06:18.052Z,14.40
2017-07-12T07:08:48.164Z,12.90
2017-07-12T07:11:16.441Z,13.67
2017-07-12T07:13:45.577Z,13.27
2017-07-12T07:16:13.837Z,15.13
2017-07-12T07:18:42.294Z,10.80
2017-07-12T07:21:14.288Z,12.27
2017-07-12T07:23:45.679Z,11.90
2017-07-12T07:26:13.961Z,12.10
2017-07-12T07:28:42.161Z,12.10
2017-07-12T07:31:10.346Z,9.70
2017-07-12T07:33:38.581Z,9.07
2017-07-12T07:36:06.749Z,9.80
2017-07-12T07:38:35.123Z,11.87
2017-07-12T07:41:03.301Z,9.27
2017-07-12T07:43:31.530Z,8.93
2017-07-12T07:46:02.308Z,9.20
2017-07-12T07:48:30.488Z,9.20
2017-07-12T07:50:58.700Z,13.40
2017-07-12T07:53:26.934Z,10.27
2017-07-12T07:55:55.194Z,9.10
2017-07-12T07:58:28.712Z,11.23
2017-07-12T08:00:56.861Z,12.10
2017-07-12T08:03:25.481Z,10.60
2017-07-12T08:05:53.670Z,11.50
2017-07-12T08:08:21.799Z,10.77
2017-07-12T08:10:49.929Z,13.23
2017-07-12T08:13:18.998Z,13.00
2017-07-12T08:15:47.255Z,10.97
2017-07-12T08:18:15.450Z,11.07
2017-07-12T08:20:43.772Z,11.27
2017-07-12T08:23:12.020Z,10.63
2017-07-12T08:25:40.184Z,11.07
2017-07-12T08:28:08.333Z,10.83
2017-07-12T08:30:36.504Z,10.60
2017-07-12T08:33:04.709Z,11.43
2017-07-12T08:35:33.096Z,10.90
2017-07-12T08:38:01.251Z,12.07
2017-07-12T08:40:30.492Z,11.43
2017-07-12T08:42:58.667Z,11.87
2017-07-12T08:45:27.780Z,13.60
2017-07-12T08:47:55.934Z,12.40
2017-07-12T08:50:24.176Z,14.03
2017-07-12T08:52:56.312Z,12.73
2017-07-12T08:55:26.288Z,12.67
2017-07-12T08:57:54.499Z,13.60
2017-07-12T09:00:22.704Z,13.67
2017-07-12T09:02:50.974Z,12.50
2017-07-12T09:05:19.558Z,14.33
2017-07-12T09:07:47.893Z,13.07
2017-07-12T09:10:16.115Z,15.87
2017-07-12T09:12:44.319Z,14.93
2017-07-12T09:15:12.468Z,14.80
2017-07-12T09:17:40.695Z,15.43
2017-07-12T09:20:08.889Z,14.97
2017-07-12T09:22:37.455Z,13.70
2017-07-12T09:34:59.901Z,15.63
2017-07-12T09:37:29.025Z,14.67
2017-07-12T09:39:57.512Z,14.97
2017-07-12T09:42:26.871Z,14.20
2017-07-12T09:44:57.003Z,13.93
2017-07-12T09:47:27.063Z,13.40
2017-07-12T09:49:56.189Z,13.80
2017-07-12T09:52:24.355Z,15.70
2017-07-12T09:54:53.468Z,14.10
2017-07-12T09:57:21.738Z,12.83
2017-07-12T09:59:50.077Z,14.37
2017-07-12T10:02:18.609Z,14.50
2017-07-12T10:04:46.793Z,14.40
2017-07-12T10:07:14.943Z,12.63
2017-07-12T10:09:43.184Z,13.80
2017-07-12T10:12:11.607Z,14.90
2017-07-12T10:14:39.998Z,14.70
2017-07-12T10:17:08.256Z,16.50
2017-07-12T10:19:36.773Z,18.77
2017-07-12T10:22:05.203Z,17.97
2017-07-12T10:24:33.427Z,15.60
2017-07-12T10:27:01.559Z,18.00
2017-07-12T10:29:29.893Z,13.87
2017-07-12T10:31:58.219Z,16.87
2017-07-12T10:34:26.406Z,13.80
2017-07-12T10:36:54.683Z,15.33
2017-07-12T10:39:22.939Z,12.03
2017-07-12T10:41:52.076Z,11.47
2017-07-12T10:44:20.497Z,9.90
2017-07-12T10:46:48.684Z,8.20
2017-07-12T10:49:16.855Z,9.90
2017-07-12T10:51:45.053Z,10.63
2017-07-12T10:54:13.267Z,9.57
2017-07-12T10:56:41.727Z,9.30
2017-07-12T10:59:12.379Z,8.00
2017-07-12T11:01:40.530Z,8.50
2017-07-12T11:04:09.529Z,9.30
2017-07-12T11:06:37.850Z,10.63
2017-07-12T11:09:07.231Z,9.60
2017-07-12T11:11:35.610Z,10.03
2017-07-12T11:14:03.813Z,10.07
2017-07-12T11:16:32.018Z,9.13
2017-07-12T11:19:02.146Z,9.40
2017-07-12T11:21:30.349Z,8.80
2017-07-12T11:23:58.499Z,9.30
2017-07-12T11:26:26.801Z,8.07
2017-07-12T11:28:55.068Z,8.90
2017-07-12T11:31:23.266Z,7.77
2017-07-12T11:33:51.522Z,7.90
2017-07-12T11:36:19.627Z,7.90
2017-07-12T11:38:47.876Z,7.93
2017-07-12T11:41:16.077Z,8.43
2017-07-12T11:43:44.271Z,6.33
2017-07-12T11:46:12.585Z,6.20
2017-07-12T11:48:42.798Z,5.80
2017-07-12T11:51:11.960Z,6.30
2017-07-12T11:53:40.122Z,6.40
2017-07-12T11:56:08.247Z,7.13
2017-07-12T11:58:36.510Z,7.23
2017-07-12T12:01:05.626Z,7.20
2017-07-12T12:03:33.775Z,6.13
2017-07-12T12:06:01.918Z,6.67
2017-07-12T12:08:30.216Z,5.77
2017-07-12T12:10:58.495Z,5.87
2017-07-12T12:13:27.685Z,4.87
2017-07-12T12:15:56.015Z,2.47
2017-07-12T12:18:29.367Z,3.30
2017-07-12T12:20:57.776Z,2.60
2017-07-12T12:23:26.972Z,3.03
2017-07-12T12:25:56.513Z,6.70
2017-07-12T12:28:24.856Z,3.90
2017-07-12T12:30:52.997Z,3.37
2017-07-12T12:33:21.235Z,3.70
2017-07-12T12:35:49.397Z,2.10
2017-07-12T12:38:17.516Z,3.83
2017-07-12T12:40:45.686Z,5.93
2017-07-12T12:43:13.868Z,6.37
2017-07-12T12:45:42.606Z,4.10
2017-07-12T12:48:11.882Z,3.03
2017-07-12T12:50:40.158Z,3.93
2017-07-12T12:53:08.350Z,3.10
2017-07-12T12:55:36.716Z,3.53
2017-07-12T12:58:04.843Z,3.43
2017-07-12T13:00:33.002Z,4.70
2017-07-12T13:03:01.179Z,4.80
2017-07-12T13:05:35.786Z,3.30
2017-07-12T13:08:05.225Z,3.57
2017-07-12T13:10:33.492Z,4.73
2017-07-12T13:13:01.782Z,3.07
2017-07-12T13:15:31.986Z,3.60
2017-07-12T13:18:00.235Z,3.23
2017-07-12T13:20:29.280Z,3.80
2017-07-12T13:22:57.430Z,3.20
2017-07-12T13:25:25.608Z,4.43
2017-07-12T13:27:53.797Z,3.97
2017-07-12T13:30:21.954Z,3.40
2017-07-12T13:32:53.385Z,3.80
2017-07-12T13:35:21.618Z,3.67
2017-07-12T13:37:50.747Z,3.07
2017-07-12T13:40:22.066Z,4.20
2017-07-12T13:42:51.830Z,4.23
2017-07-12T13:45:20.016Z,6.73
2017-07-12T13:47:50.105Z,4.43
2017-07-12T13:50:19.102Z,4.80
2017-07-12T13:52:47.283Z,5.00
2017-07-12T13:55:15.679Z,4.60
2017-07-12T13:57:44.056Z,4.80
2017-07-12T14:00:13.231Z,5.50
2017-07-12T14:02:41.472Z,5.27
2017-07-12T14:05:09.760Z,5.50
2017-07-12T14:10:36.304Z,6.27
2017-07-12T14:13:04.433Z,6.33
2017-07-12T14:18:39.368Z,5.87
2017-07-12T14:21:07.651Z,5.97
2017-07-12T14:23:35.821Z,3.33
2017-07-12T14:26:04.336Z,2.70
2017-07-12T14:28:32.563Z,3.10
2017-07-12T14:31:03.835Z,2.70
2017-07-12T14:33:33.160Z,2.47
2017-07-12T14:36:01.307Z,2.70
2017-07-12T14:38:29.438Z,2.87
2017-07-12T14:41:00.369Z,1.80
2017-07-12T14:43:28.706Z,2.63
2017-07-12T14:45:57.310Z,3.60
2017-07-12T14:48:27.926Z,3.67
2017-07-12T14:50:57.227Z,5.50
2017-07-12T14:53:25.823Z,3.63
2017-07-12T14:55:53.980Z,6.60
2017-07-12T14:58:22.210Z,3.00
2017-07-12T15:00:50.380Z,2.90
2017-07-12T15:03:21.824Z,3.27
2017-07-12T15:05:50.067Z,3.47
2017-07-12T15:08:20.858Z,5.40
2017-07-12T15:10:49.017Z,3.40
2017-07-12T15:13:19.953Z,2.70
2017-07-12T15:15:48.620Z,3.40
2017-07-12T15:18:16.868Z,2.93
2017-07-12T15:20:45.058Z,3.37
2017-07-12T15:23:15.827Z,3.30
2017-07-12T15:25:44.063Z,2.50
2017-07-12T15:28:12.390Z,2.90
2017-07-12T15:30:41.135Z,3.10
2017-07-12T15:33:09.411Z,3.23
2017-07-12T15:35:40.302Z,2.80
2017-07-12T15:38:08.479Z,2.20
2017-07-12T15:40:47.314Z,2.70
2017-07-12T15:43:15.574Z,2.20
2017-07-12T15:45:51.405Z,2.87
2017-07-12T15:48:19.603Z,2.50
2017-07-12T15:50:49.713Z,3.53
2017-07-12T15:53:17.937Z,2.67
2017-07-12T15:55:58.499Z,3.70
2017-07-12T15:58:27.827Z,4.33
2017-07-12T16:00:57.309Z,3.50
2017-07-12T16:03:25.504Z,4.10
2017-07-12T16:05:54.599Z,4.47
2017-07-12T16:08:22.842Z,5.20
2017-07-12T16:10:51.035Z,5.03
2017-07-12T16:13:19.253Z,8.23
2017-07-12T16:15:49.542Z,6.43
2017-07-12T16:18:19.112Z,6.30
2017-07-12T16:20:56.150Z,5.73
2017-07-12T16:23:31.645Z,6.37
2017-07-12T16:26:00.901Z,6.70
2017-07-12T16:28:35.459Z,5.77
2017-07-12T16:31:03.934Z,7.13
2017-07-12T16:33:44.021Z,6.40
2017-07-12T16:36:13.108Z,7.33
2017-07-12T16:38:41.270Z,8.70
2017-07-12T16:41:09.402Z,6.57
2017-07-12T16:43:40.420Z,6.07
2017-07-12T16:46:08.648Z,5.27
2017-07-12T16:48:37.985Z,6.33
2017-07-12T16:51:06.039Z,5.73
2017-07-12T16:53:49.683Z,6.13
2017-07-12T16:56:28.906Z,4.77
2017-07-12T16:58:57.020Z,6.63
2017-07-12T17:01:29.425Z,4.97
2017-07-12T17:03:57.523Z,5.17
2017-07-12T17:06:25.697Z,5.03
2017-07-12T17:08:54.612Z,5.87
2017-07-12T17:11:22.743Z,4.90
2017-07-12T17:13:50.883Z,10.67
2017-07-12T17:16:19.003Z,5.40
2017-07-12T17:18:47.141Z,6.77
2017-07-12T17:21:15.257Z,5.63
2017-07-12T17:23:43.419Z,4.63
2017-07-12T17:26:11.557Z,4.80
2017-07-12T17:28:41.628Z,4.47
2017-07-12T17:31:09.761Z,7.13
2017-07-12T17:33:38.811Z,5.63
2017-07-12T17:36:13.865Z,6.23
2017-07-12T17:38:49.268Z,8.87
2017-07-12T17:41:24.948Z,4.23
2017-07-12T17:43:55.077Z,7.30
2017-07-12T17:46:23.281Z,6.40
2017-07-12T17:49:04.104Z,5.77
2017-07-12T17:51:34.123Z,4.30
2017-07-12T17:54:08.804Z,6.90
2017-07-12T17:56:56.337Z,7.50
2017-07-12T17:59:31.883Z,5.00
2017-07-12T18:02:01.565Z,8.30
2017-07-12T18:04:29.760Z,9.30
2017-07-12T18:06:57.876Z,5.93
2017-07-12T18:09:26.144Z,3.50
2017-07-12T18:11:54.277Z,4.43
2017-07-12T18:14:26.003Z,3.13
2017-07-12T18:16:56.260Z,2.70
2017-07-12T18:19:24.365Z,5.70
2017-07-12T18:21:53.558Z,3.87
2017-07-12T18:24:25.566Z,4.10
2017-07-12T18:26:53.861Z,6.57
2017-07-12T18:29:25.035Z,3.80
2017-07-12T18:31:53.324Z,9.57
2017-07-12T18:34:21.469Z,6.43
2017-07-12T18:36:49.760Z,5.23
2017-07-12T18:39:17.914Z,2.20
2017-07-12T18:41:48.033Z,3.03
2017-07-12T18:44:16.151Z,8.57
2017-07-12T18:46:45.348Z,6.20
2017-07-12T18:49:13.627Z,3.83
2017-07-12T18:51:41.774Z,5.10
2017-07-12T18:54:09.875Z,5.50
2017-07-12T18:56:38.116Z,3.13
2017-07-12T18:59:06.260Z,2.83
2017-07-12T19:01:45.812Z,8.93
2017-07-12T19:04:14.012Z,4.60
2017-07-12T19:06:43.069Z,6.30
2017-07-12T19:09:11.188Z,6.23
2017-07-12T19:11:39.943Z,3.73
2017-07-12T19:14:08.136Z,3.87
2017-07-12T19:16:39.926Z,3.87
2017-07-12T19:19:08.214Z,4.20
2017-07-12T19:21:44.731Z,7.00
2017-07-12T19:24:12.871Z,3.70
2017-07-12T19:26:41.026Z,8.33
2017-07-12T19:29:09.206Z,4.87
2017-07-12T19:31:43.138Z,5.90
2017-07-12T19:34:11.276Z,4.57
2017-07-12T19:36:54.142Z,6.53
2017-07-12T19:39:22.308Z,4.43
2017-07-12T19:41:54.920Z,6.60
2017-07-12T19:44:23.085Z,12.33
2017-07-12T19:46:55.080Z,6.87
2017-07-12T19:49:23.257Z,5.53
2017-07-12T19:51:56.232Z,4.70
2017-07-12T19:54:43.796Z,9.17
2017-07-12T19:57:12.412Z,4.83
2017-07-12T19:59:40.543Z,7.93
2017-07-12T20:02:08.726Z,6.77
2017-07-12T20:04:44.926Z,9.63
2017-07-12T20:07:16.350Z,5.23
2017-07-12T20:09:47.932Z,3.97
2017-07-12T20:12:17.757Z,3.90
2017-07-12T20:14:50.267Z,4.90
2017-07-12T20:17:18.381Z,5.87
2017-07-12T20:19:47.999Z,5.00
2017-07-12T20:22:16.261Z,7.97
2017-07-12T20:24:46.337Z,4.77
2017-07-12T20:27:16.549Z,5.83
2017-07-12T20:29:48.976Z,7.63
2017-07-12T20:32:20.256Z,4.83
2017-07-12T20:34:52.018Z,4.90
2017-07-12T20:37:22.177Z,5.83
2017-07-12T20:39:51.335Z,6.47
2017-07-12T20:42:24.528Z,6.10
2017-07-12T20:44:53.836Z,8.90
2017-07-12T20:47:27.747Z,4.33
2017-07-12T20:49:56.794Z,6.20
2017-07-12T20:52:25.612Z,6.90
2017-07-12T20:54:53.780Z,7.23
2017-07-12T20:57:24.861Z,7.07
2017-07-12T21:00:04.408Z,5.27
2017-07-12T21:02:33.977Z,7.27
2017-07-12T21:05:04.334Z,4.23
2017-07-12T21:07:33.483Z,4.87
2017-07-12T21:10:11.781Z,8.70
2017-07-12T21:15:16.222Z,6.03
2017-07-12T21:17:46.493Z,6.13
2017-07-12T21:20:15.285Z,6.30
2017-07-12T21:22:44.309Z,5.37
2017-07-12T21:25:14.993Z,5.57
2017-07-12T21:27:43.082Z,4.63
2017-07-12T21:30:11.703Z,5.23
2017-07-12T21:32:40.006Z,6.20
2017-07-12T21:35:09.071Z,8.30
2017-07-12T21:37:37.241Z,8.80
2017-07-12T21:40:05.412Z,8.83
2017-07-12T21:42:33.568Z,5.63
2017-07-12T21:45:05.929Z,10.50
2017-07-12T21:47:34.064Z,6.63
2017-07-12T21:50:02.290Z,7.23
2017-07-12T21:52:36.335Z,7.43
2017-07-12T21:55:21.984Z,6.10
2017-07-12T21:58:08.776Z,8.57
2017-07-12T22:00:54.496Z,5.07
2017-07-12T22:03:40.065Z,6.60
2017-07-12T22:06:25.711Z,7.53
2017-07-12T22:09:11.336Z,5.57
2017-07-12T22:11:56.810Z,5.63
2017-07-12T22:14:42.499Z,5.47
2017-07-12T22:17:28.134Z,6.07
2017-07-12T22:20:13.667Z,7.83
2017-07-12T22:22:59.231Z,5.80
2017-07-12T22:25:44.800Z,9.20
2017-07-12T22:28:30.231Z,5.70
2017-07-12T22:31:15.947Z,6.40
2017-07-12T22:34:01.652Z,7.00
2017-07-12T22:36:47.393Z,7.13
2017-07-12T22:39:21.070Z,8.30
2017-07-12T22:41:54.939Z,8.63
2017-07-12T22:44:22.620Z,5.63
2017-07-12T22:46:50.837Z,7.30
2017-07-12T22:49:18.976Z,7.50
2017-07-12T22:51:47.215Z,5.43
2017-07-12T22:54:21.903Z,3.60
2017-07-12T22:56:50.114Z,5.70
2017-07-12T22:59:18.304Z,7.13
2017-07-12T23:01:46.469Z,10.50
2017-07-12T23:04:14.639Z,6.90
2017-07-12T23:06:44.789Z,7.23
2017-07-12T23:09:13.022Z,5.17
2017-07-12T23:11:41.190Z,5.63
2017-07-12T23:14:09.312Z,6.73
2017-07-12T23:16:37.499Z,5.50
2017-07-12T23:19:05.640Z,8.50
2017-07-12T23:21:33.766Z,6.80
2017-07-12T23:24:01.921Z,9.17
2017-07-12T23:26:30.143Z,9.40
2017-07-12T23:28:58.376Z,8.53
2017-07-12T23:31:26.547Z,11.57
2017-07-12T23:33:54.670Z,10.47
2017-07-12T23:36:22.832Z,7.27
2017-07-12T23:39:02.580Z,8.70
2017-07-12T23:41:31.684Z,8.17
2017-07-12T23:43:59.825Z,9.07
2017-07-12T23:46:28.080Z,3.83
2017-07-12T23:48:56.200Z,5.73
2017-07-12T23:51:26.371Z,5.97
2017-07-12T23:53:54.533Z,5.53
2017-07-12T23:56:23.540Z,8.80
2017-07-12T23:58:51.663Z,9.43
